createdAt,value
2023-03-13T00:00:15.466Z,3.45
2023-03-13T00:01:18.199Z,3.67
2023-03-13T00:02:14.851Z,3.55
2023-03-13T00:03:12.069Z,3.63
2023-03-13T00:04:08.811Z,3.33
2023-03-13T00:05:05.818Z,3.40
2023-03-13T00:06:02.501Z,3.83
2023-03-13T00:06:59.130Z,3.15
2023-03-13T00:07:55.690Z,3.53
2023-03-13T00:08:52.751Z,3.28
2023-03-13T00:09:49.626Z,3.38
2023-03-13T00:10:46.192Z,3.60
2023-03-13T00:11:44.029Z,3.22
2023-03-13T00:12:40.690Z,3.83
2023-03-13T00:13:37.846Z,3.88
2023-03-13T00:14:34.589Z,3.65
2023-03-13T00:15:31.366Z,4.00
2023-03-13T00:16:29.155Z,4.40
2023-03-13T00:17:25.767Z,4.28
2023-03-13T00:18:22.345Z,5.53
2023-03-13T00:19:18.914Z,4.50
2023-03-13T00:20:17.596Z,4.50
2023-03-13T00:21:15.368Z,4.35
2023-03-13T00:22:12.012Z,4.72
2023-03-13T00:23:08.614Z,4.53
2023-03-13T00:24:05.438Z,4.57
2023-03-13T00:25:02.036Z,4.15
2023-03-13T00:26:00.587Z,4.30
2023-03-13T00:26:58.617Z,4.28
2023-03-13T00:27:55.305Z,4.22
2023-03-13T00:28:53.181Z,4.72
2023-03-13T00:29:50.858Z,4.68
2023-03-13T00:30:47.546Z,4.60
2023-03-13T00:31:44.212Z,3.97
2023-03-13T00:32:46.207Z,4.13
2023-03-13T00:33:45.801Z,5.00
2023-03-13T00:34:42.398Z,5.07
2023-03-13T00:35:39.036Z,5.07
2023-03-13T00:36:36.314Z,5.93
2023-03-13T00:37:32.925Z,6.43
2023-03-13T00:38:31.722Z,7.90
2023-03-13T00:39:28.289Z,6.40
2023-03-13T00:40:24.848Z,9.85
2023-03-13T00:41:24.242Z,7.88
2023-03-13T00:42:22.575Z,9.40
2023-03-13T00:43:19.156Z,9.13
2023-03-13T00:44:15.813Z,9.95
2023-03-13T00:45:12.411Z,8.80
2023-03-13T00:46:10.453Z,6.80
2023-03-13T00:47:07.553Z,4.43
2023-03-13T00:48:04.280Z,4.30
2023-03-13T00:49:00.897Z,4.68
2023-03-13T00:49:57.497Z,4.55
2023-03-13T00:50:54.627Z,4.97
2023-03-13T00:51:51.223Z,4.75
2023-03-13T00:52:47.794Z,4.75
2023-03-13T00:53:44.983Z,4.35
2023-03-13T00:54:41.588Z,4.43
2023-03-13T00:55:38.201Z,4.70
2023-03-13T00:56:34.915Z,5.35
2023-03-13T00:57:31.524Z,5.40
2023-03-13T00:58:29.867Z,5.10
2023-03-13T00:59:26.453Z,5.13
2023-03-13T01:00:23.108Z,5.07
2023-03-13T01:01:32.370Z,5.70
2023-03-13T01:02:29.007Z,6.22
2023-03-13T01:03:25.862Z,6.13
2023-03-13T01:04:22.577Z,6.72
2023-03-13T01:05:19.232Z,7.57
2023-03-13T01:06:18.113Z,5.30
2023-03-13T01:07:14.721Z,5.13
2023-03-13T01:08:11.426Z,6.22
2023-03-13T01:09:11.209Z,5.05
2023-03-13T01:10:08.416Z,7.78
2023-03-13T01:11:11.549Z,13.80
2023-03-13T01:12:08.574Z,15.98
2023-03-13T01:13:06.808Z,12.68
2023-03-13T01:14:06.833Z,7.47
2023-03-13T01:15:03.815Z,7.10
2023-03-13T01:16:07.788Z,7.45
2023-03-13T01:17:04.547Z,9.52
2023-03-13T01:18:01.147Z,9.77
2023-03-13T01:19:02.079Z,9.73
2023-03-13T01:19:58.681Z,6.75
2023-03-13T01:20:55.257Z,7.97
2023-03-13T01:21:51.912Z,6.32
2023-03-13T01:22:48.499Z,6.88
2023-03-13T01:23:45.506Z,6.78
2023-03-13T01:24:42.450Z,5.80
2023-03-13T01:25:40.651Z,5.28
2023-03-13T01:26:37.429Z,5.30
2023-03-13T01:27:34.165Z,5.60
2023-03-13T01:28:30.856Z,6.35
2023-03-13T01:29:27.527Z,4.60
2023-03-13T01:30:24.273Z,5.50
2023-03-13T01:31:27.536Z,4.75
2023-03-13T01:32:24.190Z,4.97
2023-03-13T01:33:20.840Z,5.68
2023-03-13T01:34:17.574Z,5.38
2023-03-13T01:35:15.324Z,5.28
2023-03-13T01:36:12.759Z,5.22
2023-03-13T01:37:09.431Z,6.13
2023-03-13T01:38:06.133Z,5.05
2023-03-13T01:39:02.863Z,4.88
2023-03-13T01:39:59.450Z,5.20
2023-03-13T01:40:56.040Z,5.40
2023-03-13T01:41:52.655Z,5.10
2023-03-13T01:42:57.465Z,5.55
2023-03-13T01:43:55.636Z,5.15
2023-03-13T01:44:55.297Z,4.93
2023-03-13T01:45:57.923Z,5.10
2023-03-13T01:46:54.643Z,4.63
2023-03-13T01:47:51.401Z,4.30
2023-03-13T01:49:11.352Z,4.80
2023-03-13T01:50:08.437Z,6.60
2023-03-13T01:51:10.353Z,6.43
2023-03-13T01:52:31.112Z,7.65
2023-03-13T01:53:31.354Z,6.85
2023-03-13T01:54:40.762Z,6.95
2023-03-13T01:55:37.507Z,8.45
2023-03-13T01:56:55.186Z,5.95
2023-03-13T01:57:53.953Z,5.80
2023-03-13T01:58:52.371Z,5.95
2023-03-13T01:59:57.268Z,6.00
2023-03-13T02:00:54.103Z,5.10
2023-03-13T02:01:53.162Z,4.97
2023-03-13T02:02:53.567Z,5.40
2023-03-13T02:03:50.704Z,6.10
2023-03-13T02:04:55.833Z,5.97
2023-03-13T02:05:52.640Z,5.07
2023-03-13T02:06:53.411Z,4.78
2023-03-13T02:08:08.303Z,5.05
2023-03-13T02:09:22.555Z,5.30
2023-03-13T02:10:19.838Z,5.82
2023-03-13T02:11:20.797Z,6.00
2023-03-13T02:12:29.377Z,6.22
2023-03-13T02:13:26.116Z,5.72
2023-03-13T02:14:28.064Z,6.20
2023-03-13T02:15:27.470Z,6.47
2023-03-13T02:16:24.387Z,6.25
2023-03-13T02:17:21.116Z,6.50
2023-03-13T02:18:17.923Z,5.82
2023-03-13T02:19:31.438Z,5.22
2023-03-13T02:20:28.104Z,4.80
2023-03-13T02:21:34.675Z,4.47
2023-03-13T02:22:39.964Z,5.03
2023-03-13T02:23:49.978Z,5.22
2023-03-13T02:24:58.594Z,4.40
2023-03-13T02:25:56.195Z,6.28
2023-03-13T02:26:54.505Z,5.50
2023-03-13T02:27:55.139Z,6.22
2023-03-13T02:28:51.867Z,5.72
2023-03-13T02:29:49.638Z,7.03
2023-03-13T02:30:48.033Z,7.18
2023-03-13T02:31:47.122Z,6.93
2023-03-13T02:32:45.856Z,6.32
2023-03-13T02:33:45.726Z,7.18
2023-03-13T02:34:44.285Z,6.80
2023-03-13T02:35:42.934Z,6.97
2023-03-13T02:36:40.561Z,7.75
2023-03-13T02:37:37.454Z,7.90
2023-03-13T02:38:40.467Z,7.15
2023-03-13T02:39:42.425Z,7.03
2023-03-13T02:40:42.496Z,7.07
2023-03-13T02:41:42.291Z,7.20
2023-03-13T02:42:42.099Z,7.70
2023-03-13T02:43:38.983Z,7.88
2023-03-13T02:44:40.090Z,8.00
2023-03-13T02:45:36.766Z,7.63
2023-03-13T02:46:45.404Z,8.18
2023-03-13T02:47:42.349Z,7.43
2023-03-13T02:48:47.734Z,7.03
2023-03-13T02:49:44.359Z,7.38
2023-03-13T02:50:40.964Z,6.78
2023-03-13T02:51:45.304Z,7.70
2023-03-13T02:52:46.842Z,8.07
2023-03-13T02:53:44.868Z,7.05
2023-03-13T02:54:44.900Z,7.35
2023-03-13T02:55:42.427Z,8.10
2023-03-13T02:56:43.787Z,7.30
2023-03-13T02:57:40.362Z,8.65
2023-03-13T02:58:49.778Z,7.30
2023-03-13T02:59:46.869Z,8.30
2023-03-13T03:00:43.753Z,7.30
2023-03-13T03:01:40.408Z,6.95
2023-03-13T03:02:37.025Z,6.57
2023-03-13T03:03:37.074Z,6.43
2023-03-13T03:04:33.709Z,6.55
2023-03-13T03:05:30.398Z,6.13
2023-03-13T03:06:27.041Z,6.30
2023-03-13T03:07:23.620Z,7.45
2023-03-13T03:08:20.201Z,7.10
2023-03-13T03:09:17.518Z,7.32
2023-03-13T03:10:14.599Z,8.07
2023-03-13T03:11:11.781Z,7.78
2023-03-13T03:12:08.774Z,7.65
2023-03-13T03:13:05.367Z,8.52
2023-03-13T03:14:02.356Z,10.38
2023-03-13T03:14:59.150Z,10.25
2023-03-13T03:15:55.792Z,10.93
2023-03-13T03:16:52.456Z,11.52
2023-03-13T03:17:49.149Z,9.40
2023-03-13T03:18:45.730Z,7.90
2023-03-13T03:19:42.368Z,7.55
2023-03-13T03:20:38.953Z,7.28
2023-03-13T03:21:35.740Z,6.45
2023-03-13T03:22:32.384Z,6.53
2023-03-13T03:23:29.241Z,7.68
2023-03-13T03:24:25.891Z,6.75
2023-03-13T03:25:22.467Z,6.35
2023-03-13T03:26:21.916Z,6.63
2023-03-13T03:27:18.532Z,6.47
2023-03-13T03:28:15.140Z,6.60
2023-03-13T03:29:11.704Z,6.03
2023-03-13T03:30:08.923Z,6.75
2023-03-13T03:31:07.327Z,6.32
2023-03-13T03:32:03.972Z,6.55
2023-03-13T03:33:03.344Z,6.82
2023-03-13T03:34:00.494Z,8.40
2023-03-13T03:34:57.110Z,7.32
2023-03-13T03:36:00.054Z,7.70
2023-03-13T03:36:56.767Z,8.20
2023-03-13T03:37:53.375Z,8.05
2023-03-13T03:38:50.493Z,7.07
2023-03-13T03:39:47.216Z,7.65
2023-03-13T03:40:43.951Z,7.28
2023-03-13T03:41:40.668Z,6.57
2023-03-13T03:42:37.326Z,7.00
2023-03-13T03:43:34.153Z,7.18
2023-03-13T03:44:30.778Z,8.85
2023-03-13T03:45:27.610Z,10.68
2023-03-13T03:46:24.890Z,9.18
2023-03-13T03:47:21.484Z,8.35
2023-03-13T03:48:18.114Z,7.45
2023-03-13T03:49:14.706Z,6.97
2023-03-13T03:50:11.582Z,6.45
2023-03-13T03:51:08.262Z,8.27
2023-03-13T03:52:05.120Z,7.50
2023-03-13T03:53:01.865Z,8.00
2023-03-13T03:53:58.514Z,6.97
2023-03-13T03:54:55.071Z,6.75
2023-03-13T03:55:52.175Z,5.97
2023-03-13T03:56:48.740Z,9.05
2023-03-13T03:57:45.344Z,8.00
2023-03-13T03:58:42.002Z,8.57
2023-03-13T03:59:38.631Z,14.45
2023-03-13T04:00:35.199Z,11.88
2023-03-13T04:01:31.862Z,8.57
2023-03-13T04:02:28.493Z,8.23
2023-03-13T04:03:25.602Z,8.48
2023-03-13T04:04:22.319Z,7.80
2023-03-13T04:05:19.019Z,7.22
2023-03-13T04:06:15.730Z,9.10
2023-03-13T04:07:12.348Z,10.48
2023-03-13T04:08:09.461Z,12.15
2023-03-13T04:09:06.045Z,11.90
2023-03-13T04:10:03.656Z,9.35
2023-03-13T04:11:01.932Z,9.20
2023-03-13T04:11:58.506Z,6.95
2023-03-13T04:12:55.153Z,7.88
2023-03-13T04:13:51.769Z,9.18
2023-03-13T04:14:48.426Z,8.93
2023-03-13T04:15:45.302Z,7.78
2023-03-13T04:16:41.939Z,7.00
2023-03-13T04:17:38.955Z,7.95
2023-03-13T04:18:35.602Z,8.63
2023-03-13T04:19:32.221Z,7.97
2023-03-13T04:20:28.946Z,7.00
2023-03-13T04:21:25.620Z,7.90
2023-03-13T04:22:22.188Z,8.32
2023-03-13T04:23:18.791Z,8.10
2023-03-13T04:24:15.442Z,7.35
2023-03-13T04:25:12.115Z,7.93
2023-03-13T04:26:08.691Z,7.68
2023-03-13T04:27:06.663Z,9.15
2023-03-13T04:28:03.330Z,8.98
2023-03-13T04:28:59.898Z,8.45
2023-03-13T04:29:56.510Z,8.77
2023-03-13T04:30:57.206Z,8.18
2023-03-13T04:31:54.031Z,7.85
2023-03-13T04:32:51.254Z,7.18
2023-03-13T04:33:47.879Z,7.35
2023-03-13T04:34:44.439Z,7.35
2023-03-13T04:35:41.153Z,6.32
2023-03-13T04:36:37.866Z,6.00
2023-03-13T04:37:34.563Z,6.50
2023-03-13T04:38:31.184Z,6.78
2023-03-13T04:39:27.772Z,6.93
2023-03-13T04:40:24.423Z,6.60
2023-03-13T04:41:21.022Z,7.45
2023-03-13T04:42:17.566Z,5.90
2023-03-13T04:43:14.203Z,6.13
2023-03-13T04:44:10.815Z,5.68
2023-03-13T04:45:10.728Z,6.20
2023-03-13T04:46:07.388Z,5.45
2023-03-13T04:47:04.706Z,5.95
2023-03-13T04:48:01.345Z,5.93
2023-03-13T04:48:58.166Z,6.10
2023-03-13T04:49:54.741Z,6.97
2023-03-13T04:50:51.647Z,6.25
2023-03-13T04:51:48.348Z,6.32
2023-03-13T04:52:44.882Z,6.22
2023-03-13T04:53:41.457Z,5.85
2023-03-13T04:54:38.114Z,5.60
2023-03-13T04:55:34.712Z,6.35
2023-03-13T04:56:42.850Z,6.10
2023-03-13T04:57:40.073Z,5.88
2023-03-13T04:58:36.786Z,6.55
2023-03-13T04:59:33.624Z,6.90
2023-03-13T05:00:30.154Z,6.78
2023-03-13T05:01:26.818Z,7.45
2023-03-13T05:02:23.516Z,6.57
2023-03-13T05:03:20.154Z,7.15
2023-03-13T05:04:17.108Z,7.15
2023-03-13T05:05:13.763Z,6.60
2023-03-13T05:06:10.403Z,6.93
2023-03-13T05:07:07.050Z,7.22
2023-03-13T05:08:03.779Z,6.90
2023-03-13T05:09:00.818Z,6.85
2023-03-13T05:09:57.395Z,6.70
2023-03-13T05:10:53.987Z,7.80
2023-03-13T05:11:50.826Z,7.60
2023-03-13T05:12:47.460Z,7.40
2023-03-13T05:13:44.083Z,6.40
2023-03-13T05:14:40.769Z,6.57
2023-03-13T05:15:37.436Z,8.02
2023-03-13T05:16:34.054Z,8.27
2023-03-13T05:17:30.714Z,8.27
2023-03-13T05:18:27.493Z,7.47
2023-03-13T05:19:24.200Z,7.53
2023-03-13T05:20:20.927Z,7.40
2023-03-13T05:21:17.523Z,8.00
2023-03-13T05:22:14.169Z,9.82
2023-03-13T05:23:10.883Z,16.67
2023-03-13T05:24:07.662Z,10.55
2023-03-13T05:25:05.926Z,10.52
2023-03-13T05:26:02.792Z,10.25
2023-03-13T05:26:59.425Z,10.38
2023-03-13T05:27:56.049Z,9.82
2023-03-13T05:28:52.611Z,9.32
2023-03-13T05:29:49.231Z,10.63
2023-03-13T05:30:45.869Z,10.20
2023-03-13T05:31:42.501Z,9.77
2023-03-13T05:32:39.237Z,9.73
2023-03-13T05:33:35.872Z,9.38
2023-03-13T05:34:32.408Z,8.85
2023-03-13T05:35:29.107Z,8.98
2023-03-13T05:36:25.838Z,8.88
2023-03-13T05:37:22.551Z,8.70
2023-03-13T05:38:19.218Z,8.45
2023-03-13T05:39:15.816Z,8.25
2023-03-13T05:40:13.083Z,8.40
2023-03-13T05:41:09.657Z,7.75
2023-03-13T05:42:06.375Z,8.25
2023-03-13T05:43:03.120Z,8.35
2023-03-13T05:43:59.721Z,9.43
2023-03-13T05:44:56.326Z,11.35
2023-03-13T05:45:52.897Z,10.27
2023-03-13T05:46:49.662Z,10.50
2023-03-13T05:47:46.336Z,8.02
2023-03-13T05:48:42.979Z,8.85
2023-03-13T05:49:39.671Z,8.73
2023-03-13T05:50:36.323Z,8.80
2023-03-13T05:51:32.879Z,8.68
2023-03-13T05:52:29.499Z,9.07
2023-03-13T05:53:26.122Z,14.20
2023-03-13T05:54:22.728Z,11.70
2023-03-13T05:55:19.784Z,11.23
2023-03-13T05:56:16.370Z,9.70
2023-03-13T05:57:13.037Z,9.23
2023-03-13T05:58:09.616Z,8.93
2023-03-13T05:59:06.170Z,9.45
2023-03-13T06:00:04.178Z,9.27
2023-03-13T06:01:12.454Z,9.05
2023-03-13T06:02:09.061Z,8.13
2023-03-13T06:03:05.630Z,7.90
2023-03-13T06:04:02.563Z,8.20
2023-03-13T06:04:59.404Z,8.23
2023-03-13T06:05:59.715Z,7.43
2023-03-13T06:06:56.284Z,7.45
2023-03-13T06:07:52.983Z,6.25
2023-03-13T06:08:51.533Z,6.97
2023-03-13T06:09:48.126Z,7.15
2023-03-13T06:10:44.678Z,6.88
2023-03-13T06:11:41.722Z,7.43
2023-03-13T06:12:38.332Z,7.35
2023-03-13T06:13:34.951Z,7.00
2023-03-13T06:14:31.517Z,6.88
2023-03-13T06:15:28.092Z,7.22
2023-03-13T06:16:24.741Z,6.55
2023-03-13T06:17:21.389Z,6.88
2023-03-13T06:18:17.956Z,6.35
2023-03-13T06:19:14.561Z,6.60
2023-03-13T06:20:11.829Z,6.82
2023-03-13T06:21:08.456Z,6.80
2023-03-13T06:22:05.153Z,7.30
2023-03-13T06:23:01.669Z,7.05
2023-03-13T06:23:58.219Z,7.38
2023-03-13T06:24:54.830Z,6.88
2023-03-13T06:25:51.788Z,6.47
2023-03-13T06:26:50.143Z,6.75
2023-03-13T06:27:46.831Z,6.97
2023-03-13T06:28:43.441Z,6.38
2023-03-13T06:29:40.048Z,6.60
2023-03-13T06:30:36.695Z,6.40
2023-03-13T06:31:33.546Z,6.80
2023-03-13T06:32:30.303Z,6.47
2023-03-13T06:33:27.063Z,6.45
2023-03-13T06:34:23.689Z,6.47
2023-03-13T06:35:20.305Z,6.40
2023-03-13T06:36:16.903Z,6.68
2023-03-13T06:37:13.509Z,6.55
2023-03-13T06:38:11.029Z,7.15
2023-03-13T06:39:08.388Z,6.13
2023-03-13T06:40:06.339Z,6.88
2023-03-13T06:41:02.991Z,6.45
2023-03-13T06:41:59.732Z,6.63
2023-03-13T06:42:56.367Z,7.70
2023-03-13T06:43:52.963Z,7.25
2023-03-13T06:44:49.576Z,7.50
2023-03-13T06:45:46.641Z,7.65
2023-03-13T06:46:43.396Z,6.60
2023-03-13T06:47:40.057Z,6.85
2023-03-13T06:48:36.678Z,7.25
2023-03-13T06:49:33.422Z,7.82
2023-03-13T06:50:31.638Z,7.00
2023-03-13T06:51:28.193Z,6.97
2023-03-13T06:52:37.469Z,6.95
2023-03-13T06:53:37.964Z,6.88
2023-03-13T06:54:34.662Z,8.05
2023-03-13T06:55:31.453Z,7.68
2023-03-13T06:56:28.089Z,7.47
2023-03-13T06:57:24.748Z,7.47
2023-03-13T06:58:32.120Z,7.43
2023-03-13T06:59:29.334Z,7.95
2023-03-13T07:00:26.141Z,8.05
2023-03-13T07:01:22.943Z,8.82
2023-03-13T07:02:19.613Z,9.30
2023-03-13T07:03:16.255Z,9.63
2023-03-13T07:04:13.735Z,8.10
2023-03-13T07:05:10.395Z,8.50
2023-03-13T07:06:08.314Z,8.68
2023-03-13T07:07:05.385Z,7.70
2023-03-13T07:08:02.032Z,8.95
2023-03-13T07:08:58.843Z,8.18
2023-03-13T07:09:55.445Z,8.75
2023-03-13T07:10:53.177Z,8.88
2023-03-13T07:11:49.886Z,9.50
2023-03-13T07:12:46.558Z,9.40
2023-03-13T07:13:43.192Z,8.95
2023-03-13T07:14:39.806Z,8.95
2023-03-13T07:15:36.417Z,9.63
2023-03-13T07:16:33.084Z,8.90
2023-03-13T07:17:29.785Z,9.32
2023-03-13T07:18:26.494Z,9.52
2023-03-13T07:19:23.153Z,8.52
2023-03-13T07:20:19.827Z,8.38
2023-03-13T07:21:16.495Z,8.18
2023-03-13T07:22:13.222Z,7.93
2023-03-13T07:23:10.034Z,8.15
2023-03-13T07:24:07.175Z,7.95
2023-03-13T07:25:05.269Z,7.47
2023-03-13T07:26:07.270Z,7.57
2023-03-13T07:27:07.612Z,7.68
2023-03-13T07:28:04.845Z,7.18
2023-03-13T07:29:01.661Z,7.78
2023-03-13T07:29:58.321Z,7.93
2023-03-13T07:30:55.267Z,8.32
2023-03-13T07:31:51.953Z,8.65
2023-03-13T07:32:48.961Z,9.73
2023-03-13T07:33:46.292Z,10.13
2023-03-13T07:34:44.751Z,9.32
2023-03-13T07:35:41.361Z,8.80
2023-03-13T07:36:38.229Z,10.05
2023-03-13T07:37:34.866Z,10.38
2023-03-13T07:38:31.512Z,9.52
2023-03-13T07:39:28.150Z,10.27
2023-03-13T07:40:24.706Z,10.77
2023-03-13T07:41:21.496Z,9.50
2023-03-13T07:42:18.066Z,10.85
2023-03-13T07:43:14.658Z,9.95
2023-03-13T07:44:11.815Z,10.38
2023-03-13T07:45:09.568Z,9.70
2023-03-13T07:46:08.075Z,9.70
2023-03-13T07:47:04.930Z,10.25
2023-03-13T07:48:01.523Z,10.73
2023-03-13T07:48:58.411Z,8.93
2023-03-13T07:49:55.157Z,9.38
2023-03-13T07:50:52.198Z,9.80
2023-03-13T07:51:51.094Z,8.95
2023-03-13T07:52:47.695Z,9.98
2023-03-13T07:53:47.269Z,8.98
2023-03-13T07:54:43.852Z,10.38
2023-03-13T07:55:40.489Z,9.15
2023-03-13T07:56:37.125Z,9.30
2023-03-13T07:57:33.852Z,10.10
2023-03-13T07:58:33.210Z,10.35
2023-03-13T07:59:30.395Z,10.45
2023-03-13T08:00:27.163Z,10.45
2023-03-13T08:01:29.841Z,9.40
2023-03-13T08:02:27.249Z,9.77
2023-03-13T08:03:26.324Z,10.18
2023-03-13T08:04:23.202Z,9.52
2023-03-13T08:05:19.850Z,10.15
2023-03-13T08:06:23.431Z,9.95
2023-03-13T08:07:20.117Z,10.43
2023-03-13T08:08:16.780Z,11.05
2023-03-13T08:09:13.474Z,11.25
2023-03-13T08:10:10.671Z,11.90
2023-03-13T08:11:10.156Z,11.05
2023-03-13T08:12:07.679Z,11.25
2023-03-13T08:13:04.530Z,10.57
2023-03-13T08:14:01.196Z,11.30
2023-03-13T08:14:58.016Z,11.20
2023-03-13T08:16:04.508Z,11.75
2023-03-13T08:17:01.146Z,11.20
2023-03-13T08:17:58.023Z,11.65
2023-03-13T08:18:56.625Z,10.32
2023-03-13T08:19:53.267Z,11.93
2023-03-13T08:20:50.422Z,11.55
2023-03-13T08:21:47.135Z,12.02
2023-03-13T08:22:43.826Z,11.07
2023-03-13T08:23:40.857Z,11.88
2023-03-13T08:24:37.515Z,12.27
2023-03-13T08:25:34.162Z,11.88
2023-03-13T08:26:31.457Z,11.63
2023-03-13T08:27:29.994Z,11.65
2023-03-13T08:28:26.680Z,10.98
2023-03-13T08:29:23.254Z,12.50
2023-03-13T08:30:20.121Z,12.00
2023-03-13T08:31:19.677Z,11.70
2023-03-13T08:32:18.349Z,12.85
2023-03-13T08:33:15.079Z,11.30
2023-03-13T08:34:12.725Z,10.77
2023-03-13T08:35:09.675Z,11.00
2023-03-13T08:36:13.605Z,11.65
2023-03-13T08:37:10.262Z,11.25
2023-03-13T08:38:07.066Z,11.40
2023-03-13T08:39:11.538Z,11.25
2023-03-13T08:40:11.327Z,11.82
2023-03-13T08:41:08.889Z,10.85
2023-03-13T08:42:05.597Z,10.68
2023-03-13T08:43:02.170Z,11.60
2023-03-13T08:43:58.823Z,12.40
2023-03-13T08:44:55.491Z,11.35
2023-03-13T08:45:56.386Z,10.80
2023-03-13T08:46:53.032Z,12.43
2023-03-13T08:47:53.501Z,11.63
2023-03-13T08:48:51.656Z,11.52
2023-03-13T08:49:48.420Z,11.23
2023-03-13T08:50:46.313Z,10.77
2023-03-13T08:51:45.390Z,11.85
2023-03-13T08:52:45.098Z,10.95
2023-03-13T08:53:43.849Z,9.80
2023-03-13T08:54:40.533Z,10.55
2023-03-13T08:55:37.194Z,10.75
2023-03-13T08:56:34.931Z,11.27
2023-03-13T08:57:31.611Z,11.13
2023-03-13T08:58:28.776Z,11.32
2023-03-13T08:59:26.037Z,10.50
2023-03-13T09:00:23.480Z,10.50
2023-03-13T09:01:21.410Z,10.23
2023-03-13T09:02:20.373Z,10.70
2023-03-13T09:03:17.850Z,10.98
2023-03-13T09:04:14.488Z,10.95
2023-03-13T09:05:11.186Z,10.63
2023-03-13T09:06:08.974Z,10.13
2023-03-13T09:07:05.752Z,11.23
2023-03-13T09:08:02.358Z,9.55
2023-03-13T09:08:59.114Z,10.73
2023-03-13T09:09:55.697Z,10.13
2023-03-13T09:11:07.407Z,10.88
2023-03-13T09:12:04.301Z,10.55
2023-03-13T09:13:01.096Z,10.27
2023-03-13T09:13:59.439Z,10.98
2023-03-13T09:14:56.185Z,11.00
2023-03-13T09:15:57.705Z,10.35
2023-03-13T09:16:54.445Z,10.70
2023-03-13T09:17:51.225Z,10.57
2023-03-13T09:18:48.658Z,10.40
2023-03-13T09:19:59.194Z,9.68
2023-03-13T09:20:56.698Z,9.57
2023-03-13T09:21:53.398Z,9.70
2023-03-13T09:22:50.023Z,8.68
2023-03-13T09:23:47.654Z,9.07
2023-03-13T09:24:45.854Z,8.63
2023-03-13T09:25:42.519Z,9.10
2023-03-13T09:26:42.662Z,9.52
2023-03-13T09:27:43.516Z,8.73
2023-03-13T09:28:42.178Z,8.15
2023-03-13T09:29:41.633Z,8.82
2023-03-13T09:30:38.476Z,7.95
2023-03-13T09:31:35.164Z,7.20
2023-03-13T09:32:31.953Z,7.22
2023-03-13T09:33:28.646Z,7.05
2023-03-13T09:34:25.532Z,7.85
2023-03-13T09:35:22.229Z,7.20
2023-03-13T09:36:22.315Z,7.55
2023-03-13T09:37:19.377Z,7.35
2023-03-13T09:38:20.170Z,6.75
2023-03-13T09:39:16.819Z,6.70
2023-03-13T09:40:17.332Z,6.15
2023-03-13T09:41:22.627Z,6.55
2023-03-13T09:42:24.471Z,6.30
2023-03-13T09:43:39.653Z,6.38
2023-03-13T09:44:54.867Z,6.60
2023-03-13T09:45:55.015Z,6.90
2023-03-13T09:46:54.498Z,6.22
2023-03-13T09:47:56.781Z,6.57
2023-03-13T09:48:59.361Z,6.88
2023-03-13T09:50:04.996Z,6.45
2023-03-13T09:51:36.655Z,6.38
2023-03-13T09:52:41.091Z,6.28
2023-03-13T09:53:45.578Z,6.65
2023-03-13T09:55:04.593Z,5.90
2023-03-13T09:56:05.294Z,6.05
2023-03-13T09:57:31.409Z,6.63
2023-03-13T09:58:30.127Z,6.47
2023-03-13T09:59:26.693Z,5.72
2023-03-13T10:00:40.660Z,6.07
2023-03-13T10:01:40.485Z,5.53
2023-03-13T10:02:37.603Z,5.05
2023-03-13T10:03:40.641Z,5.32
2023-03-13T10:04:48.074Z,5.18
2023-03-13T10:05:50.819Z,5.35
2023-03-13T10:06:48.973Z,5.28
2023-03-13T10:07:45.640Z,4.90
2023-03-13T10:08:42.330Z,5.15
2023-03-13T10:09:40.921Z,5.90
2023-03-13T10:10:46.744Z,5.10
2023-03-13T10:12:04.276Z,5.13
2023-03-13T10:13:10.978Z,4.88
2023-03-13T10:14:20.985Z,5.78
2023-03-13T10:15:34.028Z,5.10
2023-03-13T10:16:39.066Z,5.40
2023-03-13T10:17:37.931Z,5.88
2023-03-13T10:18:34.591Z,5.40
2023-03-13T10:19:42.292Z,5.85
2023-03-13T10:20:40.474Z,4.90
2023-03-13T10:21:38.206Z,5.65
2023-03-13T10:22:34.945Z,5.50
2023-03-13T10:23:48.996Z,6.30
2023-03-13T10:24:45.541Z,6.15
2023-03-13T10:25:42.311Z,5.57
2023-03-13T10:26:39.068Z,5.32
2023-03-13T10:27:50.777Z,5.18
2023-03-13T10:28:48.463Z,5.05
2023-03-13T10:29:45.286Z,5.40
2023-03-13T10:30:54.374Z,5.22
2023-03-13T10:32:03.517Z,4.78
2023-03-13T10:33:18.468Z,4.20
2023-03-13T10:34:15.738Z,4.97
2023-03-13T10:35:20.393Z,4.22
2023-03-13T10:36:19.769Z,4.18
2023-03-13T10:37:20.656Z,4.88
2023-03-13T10:38:23.412Z,5.40
2023-03-13T10:39:23.350Z,5.05
2023-03-13T10:40:26.346Z,5.03
2023-03-13T10:41:28.046Z,5.07
2023-03-13T10:42:31.444Z,4.68
2023-03-13T10:43:30.606Z,4.60
2023-03-13T10:44:33.714Z,4.40
2023-03-13T10:45:36.180Z,4.55
2023-03-13T10:47:35.140Z,4.38
2023-03-13T10:48:37.613Z,4.43
2023-03-13T10:50:34.918Z,4.68
2023-03-13T10:51:40.586Z,6.00
2023-03-13T10:52:49.186Z,6.32
2023-03-13T10:53:45.937Z,6.28
2023-03-13T10:54:45.607Z,5.43
2023-03-13T10:55:44.703Z,4.60
2023-03-13T10:56:41.420Z,4.50
2023-03-13T10:57:38.270Z,4.43
2023-03-13T10:58:41.319Z,4.15
2023-03-13T10:59:45.799Z,4.22
2023-03-13T11:00:44.534Z,4.50
2023-03-13T11:01:44.860Z,4.35
2023-03-13T11:02:44.879Z,5.13
2023-03-13T11:03:44.969Z,5.40
2023-03-13T11:04:42.111Z,5.20
2023-03-13T11:05:43.310Z,5.72
2023-03-13T11:06:39.964Z,5.40
2023-03-13T11:07:40.674Z,5.25
2023-03-13T11:08:37.858Z,5.57
2023-03-13T11:09:34.506Z,5.40
2023-03-13T11:10:32.490Z,5.80
2023-03-13T11:11:31.218Z,5.78
2023-03-13T11:12:28.017Z,5.10
2023-03-13T11:13:41.943Z,5.30
2023-03-13T11:14:38.664Z,5.60
2023-03-13T11:15:57.564Z,5.05
2023-03-13T11:17:15.511Z,5.15
2023-03-13T11:18:24.172Z,4.75
2023-03-13T11:20:02.463Z,5.28
2023-03-13T11:21:15.662Z,5.53
2023-03-13T11:22:27.898Z,5.32
2023-03-13T11:23:32.205Z,4.88
2023-03-13T11:24:53.134Z,4.82
2023-03-13T11:26:02.701Z,4.93
2023-03-13T11:27:08.573Z,5.57
2023-03-13T11:28:17.324Z,5.25
2023-03-13T11:29:36.599Z,5.60
2023-03-13T11:30:43.321Z,5.28
2023-03-13T11:31:56.554Z,5.22
2023-03-13T11:33:01.972Z,5.93
2023-03-13T11:34:16.646Z,5.82
2023-03-13T11:35:35.271Z,5.03
2023-03-13T11:37:02.504Z,5.63
2023-03-13T11:38:03.440Z,5.15
2023-03-13T11:39:15.543Z,5.60
2023-03-13T11:40:24.409Z,6.00
2023-03-13T11:41:52.005Z,5.53
2023-03-13T11:43:00.547Z,5.78
2023-03-13T11:44:04.057Z,5.53
2023-03-13T11:45:17.819Z,5.68
2023-03-13T11:46:19.294Z,5.43
2023-03-13T11:47:36.370Z,5.75
2023-03-13T11:49:12.465Z,5.30
2023-03-13T11:50:21.155Z,5.20
2023-03-13T11:51:23.004Z,4.95
2023-03-13T11:52:38.596Z,5.05
2023-03-13T11:54:09.047Z,4.90
2023-03-13T11:55:28.234Z,4.90
2023-03-13T11:56:50.998Z,4.72
2023-03-13T11:58:13.864Z,5.00
2023-03-13T11:59:55.451Z,5.15
2023-03-13T12:01:25.194Z,4.70
2023-03-13T12:02:39.949Z,4.60
2023-03-13T12:03:44.683Z,5.07
2023-03-13T12:04:46.851Z,4.53
2023-03-13T12:05:58.899Z,5.05
2023-03-13T12:06:59.147Z,4.93
2023-03-13T12:08:19.415Z,5.00
2023-03-13T12:09:31.809Z,4.78
2023-03-13T12:10:37.371Z,4.53
2023-03-13T12:11:45.707Z,5.18
2023-03-13T12:12:48.079Z,5.03
2023-03-13T12:13:52.085Z,5.43
2023-03-13T12:14:52.714Z,5.22
2023-03-13T12:15:56.745Z,4.75
2023-03-13T12:17:01.352Z,5.13
2023-03-13T12:18:15.099Z,4.95
2023-03-13T12:19:26.169Z,4.22
2023-03-13T12:20:33.610Z,3.90
2023-03-13T12:21:42.879Z,4.55
2023-03-13T12:22:45.490Z,4.95
2023-03-13T12:24:09.616Z,6.10
2023-03-13T12:25:11.158Z,5.53
2023-03-13T12:26:15.388Z,5.60
2023-03-13T12:27:16.212Z,5.63
2023-03-13T12:28:25.117Z,5.28
2023-03-13T12:29:32.905Z,5.20
2023-03-13T12:30:29.574Z,5.90
2023-03-13T12:31:39.051Z,5.57
2023-03-13T12:32:44.534Z,5.47
2023-03-13T12:33:56.351Z,5.45
2023-03-13T12:35:15.444Z,5.47
2023-03-13T12:36:29.507Z,5.55
2023-03-13T12:38:01.934Z,5.70
2023-03-13T12:39:43.478Z,5.70
2023-03-13T12:41:13.237Z,5.57
2023-03-13T12:42:36.607Z,5.20
2023-03-13T12:43:35.196Z,5.07
2023-03-13T12:44:32.366Z,4.00
2023-03-13T12:45:29.921Z,3.97
2023-03-13T12:46:47.886Z,4.05
2023-03-13T12:48:09.269Z,3.58
2023-03-13T12:49:43.170Z,3.75
2023-03-13T12:50:55.312Z,4.10
2023-03-13T12:52:26.579Z,3.97
2023-03-13T12:54:05.252Z,4.28
2023-03-13T12:55:10.068Z,4.93
2023-03-13T12:56:15.636Z,4.78
2023-03-13T12:57:29.802Z,4.72
2023-03-13T12:58:45.376Z,4.93
2023-03-13T12:59:46.145Z,5.15
2023-03-13T13:00:47.028Z,5.03
2023-03-13T13:01:48.349Z,4.80
2023-03-13T13:02:45.704Z,5.10
2023-03-13T13:03:53.055Z,4.90
2023-03-13T13:04:53.504Z,5.05
2023-03-13T13:06:03.316Z,4.95
2023-03-13T13:07:18.675Z,4.82
2023-03-13T13:08:26.162Z,5.38
2023-03-13T13:09:32.147Z,4.80
2023-03-13T13:10:29.245Z,4.90
2023-03-13T13:11:40.894Z,4.93
2023-03-13T13:12:46.562Z,5.22
2023-03-13T13:13:43.232Z,5.28
2023-03-13T13:14:49.007Z,5.05
2023-03-13T13:16:02.326Z,4.88
2023-03-13T13:17:20.734Z,4.60
2023-03-13T13:18:28.937Z,5.53
2023-03-13T13:19:25.628Z,4.70
2023-03-13T13:20:33.129Z,5.07